Time;durP1;ratioP1;P1;durP2;ratioP2;P2;SDS_P1;SDS_P2;PMS_P1;PMS_P2;Temp;Humidity;BMP_temperature;BMP_pressure;BME280_temperature;BME280_humidity;BME280_pressure;Samples;Min_cycle;Max_cycle;Signal;HPM_P1;HPM_P2
2022/07/17 00:00:42;;;;;;;2.83;1.02;;;14.70;92.20;;;;;;4122141;28;20087;-80
2022/07/17 00:02:43;;;;;;;4.80;1.08;;;14.70;92.40;;;;;;4106328;29;20065;-80
2022/07/17 00:04:44;;;;;;;9.73;1.88;;;14.60;92.40;;;;;;4137406;28;20077;-80
2022/07/17 00:06:44;;;;;;;4.80;1.00;;;14.60;92.60;;;;;;4105523;28;20492;-81
2022/07/17 00:08:46;;;;;;;5.22;1.35;;;14.60;92.60;;;;;;4137728;28;20136;-81
2022/07/17 00:10:47;;;;;;;4.25;0.90;;;14.60;92.60;;;;;;4139183;28;20053;-81
2022/07/17 00:12:49;;;;;;;7.30;1.80;;;14.60;92.90;;;;;;4136953;28;20050;-81
2022/07/17 00:14:50;;;;;;;5.50;1.02;;;14.70;93.00;;;;;;4140971;28;20065;-81
2022/07/17 00:16:53;;;;;;;5.38;1.90;;;14.60;93.00;;;;;;4118860;28;20055;-81
2022/07/17 00:18:53;;;;;;;6.80;1.00;;;14.60;93.10;;;;;;4136592;28;20126;-81
2022/07/17 00:20:54;;;;;;;3.45;1.13;;;14.60;93.30;;;;;;4118314;28;20448;-80
2022/07/17 00:22:55;;;;;;;3.65;1.25;;;14.60;93.30;;;;;;4136148;28;20077;-81
2022/07/17 00:24:55;;;;;;;4.25;1.00;;;14.50;93.40;;;;;;4129304;28;20085;-81
2022/07/17 00:26:56;;;;;;;5.25;1.52;;;14.50;93.30;;;;;;4135209;28;20137;-81
2022/07/17 00:28:57;;;;;;;3.70;1.15;;;14.60;93.40;;;;;;4101864;28;20058;-80
2022/07/17 00:30:58;;;;;;;7.80;1.58;;;14.50;93.30;;;;;;4134695;28;20058;-80
2022/07/17 00:32:59;;;;;;;3.28;1.20;;;14.50;93.40;;;;;;4162421;28;20057;-80
2022/07/17 00:35:00;;;;;;;5.25;1.00;;;14.40;93.50;;;;;;4134324;28;20043;-81
2022/07/17 00:37:00;;;;;;;5.22;0.90;;;14.30;93.70;;;;;;4134448;28;20054;-81
2022/07/17 00:39:01;;;;;;;5.40;1.20;;;14.30;94.00;;;;;;4116948;28;20534;-81
2022/07/17 00:41:02;;;;;;;6.60;0.95;;;14.30;94.20;;;;;;4133992;28;20049;-81
2022/07/17 00:43:02;;;;;;;3.17;1.00;;;14.30;94.10;;;;;;4117157;28;20433;-81
2022/07/17 00:45:03;;;;;;;4.72;1.10;;;14.30;94.10;;;;;;4149936;28;20517;-80
2022/07/17 00:47:09;;;;;;;3.97;1.27;;;14.30;94.20;;;;;;4118990;28;20549;-81
2022/07/17 00:49:10;;;;;;;4.95;1.63;;;14.30;94.10;;;;;;4151917;28;20060;-81
2022/07/17 00:51:10;;;;;;;1.98;1.00;;;14.30;94.30;;;;;;4119626;28;20571;-81
2022/07/17 00:53:11;;;;;;;3.33;1.00;;;14.20;94.40;;;;;;4137663;28;20035;-81
2022/07/17 00:55:13;;;;;;;6.15;1.30;;;14.20;94.40;;;;;;4120754;28;20047;-80
2022/07/17 00:57:15;;;;;;;2.85;0.98;;;14.20;94.60;;;;;;4120869;28;20066;-80
2022/07/17 00:59:16;;;;;;;8.85;1.52;;;14.20;94.70;;;;;;4120806;28;20055;-80
2022/07/17 01:01:17;;;;;;;7.90;1.40;;;14.20;94.50;;;;;;4137574;28;20078;-81
2022/07/17 01:03:19;;;;;;;9.20;1.70;;;14.10;94.50;;;;;;4120475;28;20107;-81
2022/07/17 01:05:22;;;;;;;7.15;1.45;;;14.10;94.70;;;;;;4118875;28;20071;-81
2022/07/17 01:07:24;;;;;;;3.50;1.58;;;14.10;94.80;;;;;;4102133;29;20061;-81
2022/07/17 01:09:26;;;;;;;3.78;1.08;;;14.00;94.80;;;;;;4136527;28;20061;-81
2022/07/17 01:11:27;;;;;;;3.75;1.30;;;13.90;95.10;;;;;;4119168;28;20130;-81
2022/07/17 01:13:27;;;;;;;5.43;1.08;;;13.90;95.20;;;;;;4138585;28;20042;-81
2022/07/17 01:15:29;;;;;;;7.15;1.50;;;13.90;95.20;;;;;;4124786;28;20089;-80
2022/07/17 01:17:31;;;;;;;4.78;1.40;;;13.90;95.30;;;;;;4120780;28;20078;-80
2022/07/17 01:19:33;;;;;;;4.85;1.83;;;13.90;95.70;;;;;;4139962;28;20106;-81
2022/07/17 01:21:43;;;;;;;8.13;2.05;;;13.80;95.50;;;;;;4121190;28;20058;-81
2022/07/17 01:23:43;;;;;;;6.38;1.20;;;13.80;95.70;;;;;;4152964;28;20409;-81
2022/07/17 01:25:45;;;;;;;6.50;1.55;;;13.90;95.60;;;;;;4108263;28;20051;-81
2022/07/17 01:27:45;;;;;;;4.53;1.77;;;13.90;95.90;;;;;;4137246;28;20054;-81
2022/07/17 01:29:46;;;;;;;4.47;1.27;;;13.80;95.80;;;;;;4130441;28;20042;-81
2022/07/17 01:31:48;;;;;;;4.05;1.10;;;13.80;95.80;;;;;;4138688;28;20411;-81
2022/07/17 01:33:49;;;;;;;3.55;1.20;;;13.90;96.00;;;;;;4140230;28;20058;-81
2022/07/17 01:35:52;;;;;;;6.05;1.30;;;13.80;96.10;;;;;;4123134;28;20046;-81
2022/07/17 01:37:52;;;;;;;3.45;1.38;;;13.70;96.20;;;;;;4122633;28;20042;-80
2022/07/17 01:39:53;;;;;;;3.22;1.42;;;13.80;96.30;;;;;;4121978;28;20110;-80
2022/07/17 01:41:55;;;;;;;7.13;1.85;;;13.80;96.30;;;;;;4122168;28;20122;-80
2022/07/17 01:43:55;;;;;;;5.07;1.10;;;13.80;96.30;;;;;;4120582;28;20133;-80
2022/07/17 01:45:56;;;;;;;4.78;1.70;;;13.70;96.20;;;;;;4123141;28;20121;-80
2022/07/17 01:47:58;;;;;;;5.43;1.55;;;13.70;96.20;;;;;;4108206;29;20079;-80
2022/07/17 01:50:01;;;;;;;2.20;1.08;;;13.60;96.30;;;;;;4140305;28;20046;-80
2022/07/17 01:52:02;;;;;;;4.50;2.10;;;13.70;96.50;;;;;;4139650;28;20212;-80
2022/07/17 01:54:04;;;;;;;3.30;1.52;;;13.60;96.50;;;;;;4153731;28;20541;-80
2022/07/17 01:56:05;;;;;;;3.17;1.40;;;13.50;96.70;;;;;;4122066;28;20055;-81
2022/07/17 01:58:07;;;;;;;4.43;1.60;;;13.50;96.90;;;;;;4120554;28;20043;-81
2022/07/17 02:00:11;;;;;;;3.97;1.60;;;13.50;97.00;;;;;;4120778;28;20047;-81
2022/07/17 02:02:12;;;;;;;6.53;1.67;;;13.40;97.00;;;;;;4120801;28;20110;-81
2022/07/17 02:04:13;;;;;;;5.53;1.65;;;13.40;97.10;;;;;;4153130;28;20049;-81
2022/07/17 02:06:14;;;;;;;5.85;1.33;;;13.40;97.20;;;;;;4120749;28;20046;-81
2022/07/17 02:08:15;;;;;;;10.13;1.30;;;13.40;97.20;;;;;;4137332;28;20038;-81
2022/07/17 02:10:22;;;;;;;3.38;1.30;;;13.40;97.20;;;;;;4120703;28;20046;-81
2022/07/17 02:12:23;;;;;;;4.30;1.90;;;13.40;97.20;;;;;;4137521;28;20491;-81
2022/07/17 02:14:25;;;;;;;5.40;1.85;;;13.40;97.20;;;;;;4120573;28;20071;-81
2022/07/17 02:16:26;;;;;;;2.17;1.25;;;13.40;97.30;;;;;;4138351;28;20096;-81
2022/07/17 02:18:27;;;;;;;5.45;1.38;;;13.40;97.30;;;;;;4139144;28;20511;-81
2022/07/17 02:20:27;;;;;;;4.75;1.58;;;13.30;97.40;;;;;;4121143;28;20389;-81
2022/07/17 02:22:28;;;;;;;6.47;1.73;;;13.30;97.60;;;;;;4103911;29;20134;-81
2022/07/17 02:24:30;;;;;;;5.50;1.38;;;13.30;97.60;;;;;;4103653;29;20526;-81
2022/07/17 02:26:31;;;;;;;6.85;1.65;;;13.30;97.50;;;;;;4121306;28;20051;-81
2022/07/17 02:28:31;;;;;;;6.10;1.70;;;13.30;97.60;;;;;;4103758;29;20039;-81
2022/07/17 02:30:32;;;;;;;5.65;1.60;;;13.30;97.70;;;;;;4103976;29;20469;-81
2022/07/17 02:32:41;;;;;;;4.88;1.27;;;13.30;98.00;;;;;;4116699;28;20054;-81
2022/07/17 02:34:42;;;;;;;7.00;1.70;;;13.30;98.20;;;;;;4136801;28;20046;-81
2022/07/17 02:36:43;;;;;;;7.95;2.20;;;13.30;98.00;;;;;;4136661;28;20050;-81
2022/07/17 02:38:44;;;;;;;6.25;1.75;;;13.30;98.00;;;;;;4103271;29;20073;-81
2022/07/17 02:40:46;;;;;;;6.30;1.40;;;13.20;97.90;;;;;;4152094;28;20046;-81
2022/07/17 02:42:48;;;;;;;9.30;1.55;;;13.30;97.90;;;;;;4137207;28;20042;-81
2022/07/17 02:44:49;;;;;;;4.22;1.55;;;13.20;97.80;;;;;;4119407;28;20042;-81
2022/07/17 02:46:50;;;;;;;3.40;1.55;;;13.20;98.00;;;;;;4151373;28;20053;-80
2022/07/17 02:48:52;;;;;;;3.72;1.80;;;13.20;98.30;;;;;;4118747;28;20051;-80
2022/07/17 02:50:53;;;;;;;4.10;1.23;;;13.10;98.30;;;;;;4118085;28;20435;-82
2022/07/17 02:52:54;;;;;;;4.03;1.23;;;13.10;98.40;;;;;;4118134;28;20050;-81
2022/07/17 02:54:54;;;;;;;8.77;2.88;;;13.10;98.50;;;;;;4136047;28;20510;-81
2022/07/17 02:56:55;;;;;;;6.75;1.50;;;13.00;98.70;;;;;;4122012;28;20146;-81
2022/07/17 02:58:55;;;;;;;3.20;2.00;;;13.10;98.80;;;;;;4122587;28;20101;-81
2022/07/17 03:00:56;;;;;;;4.63;1.80;;;13.00;98.70;;;;;;4138626;28;20108;-81
2022/07/17 03:02:58;;;;;;;5.03;1.50;;;13.00;98.90;;;;;;4140144;28;20047;-80
2022/07/17 03:04:59;;;;;;;5.15;1.90;;;13.00;98.90;;;;;;4140170;28;20073;-81
2022/07/17 03:07:00;;;;;;;8.27;1.58;;;13.00;99.00;;;;;;4123588;28;20561;-81
2022/07/17 03:09:01;;;;;;;2.85;1.48;;;13.10;99.10;;;;;;4107204;29;20050;-80
2022/07/17 03:11:02;;;;;;;7.00;1.40;;;13.00;99.20;;;;;;4140464;28;20498;-81
2022/07/17 03:13:02;;;;;;;3.20;1.40;;;13.00;99.20;;;;;;4140291;28;20049;-81
2022/07/17 03:15:05;;;;;;;9.82;1.98;;;13.00;99.50;;;;;;4140244;28;20084;-80
2022/07/17 03:17:06;;;;;;;5.97;1.35;;;12.90;99.40;;;;;;4122407;28;20055;-80
2022/07/17 03:19:09;;;;;;;4.57;1.50;;;12.90;99.50;;;;;;4139273;28;20046;-80
2022/07/17 03:21:10;;;;;;;3.75;1.38;;;12.90;99.50;;;;;;4138545;28;20077;-81
2022/07/17 03:23:12;;;;;;;2.75;1.33;;;12.90;99.40;;;;;;4138175;28;20491;-81
2022/07/17 03:25:12;;;;;;;6.45;1.73;;;12.90;99.40;;;;;;4121735;28;20148;-81
2022/07/17 03:27:13;;;;;;;6.20;1.50;;;12.90;99.50;;;;;;4138903;28;20116;-80
2022/07/17 03:29:17;;;;;;;5.30;1.60;;;12.90;99.50;;;;;;4138629;28;20407;-80
2022/07/17 03:31:17;;;;;;;3.28;1.40;;;12.80;99.50;;;;;;4138945;28;20038;-82
2022/07/17 03:33:18;;;;;;;5.05;1.60;;;12.80;99.50;;;;;;4154269;28;20049;-81
2022/07/17 03:35:19;;;;;;;8.40;2.30;;;12.80;99.60;;;;;;4138906;28;20082;-80
2022/07/17 03:37:20;;;;;;;5.90;1.70;;;12.80;99.70;;;;;;4137635;28;20070;-80
2022/07/17 03:39:21;;;;;;;8.50;2.20;;;12.80;99.80;;;;;;4120290;28;20133;-81
2022/07/17 03:41:22;;;;;;;5.07;1.73;;;12.80;99.70;;;;;;4138002;28;20397;-81
2022/07/17 03:43:22;;;;;;;5.93;1.30;;;12.80;99.80;;;;;;4119996;28;20101;-81
2022/07/17 03:45:23;;;;;;;6.05;2.38;;;12.80;99.80;;;;;;4138513;28;20407;-80
2022/07/17 03:47:24;;;;;;;4.05;1.40;;;12.90;99.80;;;;;;4122732;28;20101;-81
2022/07/17 03:49:24;;;;;;;4.93;1.63;;;12.80;99.80;;;;;;4105475;29;20117;-81
2022/07/17 03:51:26;;;;;;;6.88;1.45;;;12.80;99.90;;;;;;4122958;28;20041;-81
2022/07/17 03:53:27;;;;;;;4.38;1.33;;;12.80;99.80;;;;;;4139683;28;20126;-81
2022/07/17 03:55:27;;;;;;;5.75;1.33;;;12.90;99.80;;;;;;4122567;28;20043;-80
2022/07/17 03:57:28;;;;;;;5.75;1.42;;;12.90;99.80;;;;;;4139998;28;20042;-81
2022/07/17 03:59:29;;;;;;;5.90;1.77;;;12.80;99.90;;;;;;4122855;28;20059;-81
2022/07/17 04:01:29;;;;;;;7.60;1.23;;;12.90;99.90;;;;;;4152922;28;20387;-81
2022/07/17 04:03:30;;;;;;;5.75;1.70;;;12.90;99.90;;;;;;4152845;28;20111;-81
2022/07/17 04:05:31;;;;;;;2.45;1.00;;;12.90;99.90;;;;;;4121184;28;20038;-80
2022/07/17 04:07:31;;;;;;;15.57;1.80;;;13.00;99.90;;;;;;4120737;28;20094;-81
2022/07/17 04:09:33;;;;;;;7.60;2.00;;;13.00;99.90;;;;;;4139984;28;20046;-81
2022/07/17 04:11:34;;;;;;;4.03;1.50;;;13.10;99.90;;;;;;4124109;28;20047;-81
2022/07/17 04:13:34;;;;;;;5.55;1.40;;;13.00;99.90;;;;;;4142094;28;20046;-81
2022/07/17 04:15:57;;;;;;;3.05;1.38;;;13.00;99.90;;;;;;4108421;29;20057;-81
2022/07/17 04:17:58;;;;;;;4.80;1.50;;;13.00;99.90;;;;;;4123011;28;20074;-81
2022/07/17 04:20:05;;;;;;;4.72;1.65;;;13.00;99.90;;;;;;4121406;28;20058;-80
2022/07/17 04:22:07;;;;;;;6.00;1.50;;;13.00;99.90;;;;;;4121439;28;20055;-80
2022/07/17 04:24:08;;;;;;;3.78;1.38;;;13.00;99.90;;;;;;4121467;28;20047;-81
2022/07/17 04:26:08;;;;;;;3.53;1.30;;;12.90;99.90;;;;;;4122740;28;20593;-81
2022/07/17 04:28:10;;;;;;;5.38;2.60;;;12.90;99.90;;;;;;4137881;28;20058;-81
2022/07/17 04:30:12;;;;;;;5.65;1.42;;;12.90;99.90;;;;;;4106732;29;20082;-81
2022/07/17 04:32:13;;;;;;;4.72;1.38;;;13.00;99.90;;;;;;4131991;28;20042;-81
2022/07/17 04:34:16;;;;;;;4.60;1.00;;;13.00;99.90;;;;;;4117569;28;20498;-82
2022/07/17 04:36:16;;;;;;;2.97;1.10;;;13.10;99.90;;;;;;4117171;28;20059;-81
2022/07/17 04:38:17;;;;;;;3.50;1.10;;;13.10;99.90;;;;;;4133093;28;20129;-81
2022/07/17 04:40:20;;;;;;;4.32;1.20;;;13.20;99.90;;;;;;4118013;28;20093;-81
2022/07/17 04:42:20;;;;;;;7.15;1.20;;;13.10;99.90;;;;;;4149434;28;20046;-81
2022/07/17 04:44:21;;;;;;;5.15;1.17;;;13.10;99.90;;;;;;4116211;28;20514;-81
2022/07/17 04:46:22;;;;;;;3.45;1.10;;;13.20;99.90;;;;;;4119808;28;20510;-81
2022/07/17 04:48:22;;;;;;;6.75;1.00;;;13.20;99.90;;;;;;4153728;28;20046;-81
2022/07/17 04:50:25;;;;;;;4.70;1.08;;;13.20;99.90;;;;;;4140248;28;20043;-81
2022/07/17 04:52:27;;;;;;;5.43;1.30;;;13.20;99.90;;;;;;4122681;28;20055;-81
2022/07/17 04:54:28;;;;;;;6.68;1.40;;;13.20;99.90;;;;;;4123015;28;20051;-81
2022/07/17 04:56:29;;;;;;;5.57;1.38;;;13.30;99.90;;;;;;4106745;29;20062;-81
2022/07/17 04:58:30;;;;;;;6.20;1.25;;;13.30;99.90;;;;;;4104874;29;20149;-81
2022/07/17 05:00:30;;;;;;;3.35;1.00;;;13.30;99.90;;;;;;4124638;28;20194;-79
2022/07/17 05:02:31;;;;;;;8.05;1.73;;;13.30;99.90;;;;;;4118659;29;20070;-80
2022/07/17 05:04:33;;;;;;;6.03;1.17;;;13.40;99.90;;;;;;4129414;28;20051;-81
2022/07/17 05:06:40;;;;;;;4.43;1.58;;;13.40;99.90;;;;;;4139788;28;20043;-81
2022/07/17 05:08:40;;;;;;;4.10;1.50;;;13.40;99.90;;;;;;4121191;28;20050;-80
2022/07/17 05:10:41;;;;;;;4.07;1.30;;;13.40;99.90;;;;;;4153179;28;20103;-80
2022/07/17 05:12:43;;;;;;;5.68;1.05;;;13.40;99.90;;;;;;4138802;28;20074;-81
2022/07/17 05:14:43;;;;;;;7.03;1.50;;;13.50;99.90;;;;;;4112076;28;20438;-80
2022/07/17 05:16:44;;;;;;;9.13;1.50;;;13.50;99.90;;;;;;4136259;28;20089;-80
2022/07/17 05:18:46;;;;;;;4.82;1.00;;;13.50;99.90;;;;;;4121317;28;20046;-80
2022/07/17 05:20:46;;;;;;;10.25;2.85;;;13.50;99.90;;;;;;4153498;28;20050;-81
2022/07/17 05:22:47;;;;;;;3.72;1.58;;;13.60;99.90;;;;;;4120625;28;20222;-81
2022/07/17 05:24:49;;;;;;;4.55;1.63;;;13.60;99.90;;;;;;4137848;28;20100;-81
2022/07/17 05:26:49;;;;;;;7.40;1.33;;;13.60;99.90;;;;;;4170083;28;20112;-81
2022/07/17 05:28:51;;;;;;;10.63;1.20;;;13.60;99.90;;;;;;4152144;28;20049;-81
2022/07/17 05:30:52;;;;;;;2.25;1.17;;;13.70;99.90;;;;;;4152083;28;20093;-81
2022/07/17 05:32:53;;;;;;;4.05;1.13;;;13.70;99.90;;;;;;4137500;28;20046;-81
2022/07/17 05:34:55;;;;;;;5.78;1.42;;;13.70;99.90;;;;;;4137470;28;20057;-81
2022/07/17 05:36:56;;;;;;;5.50;1.08;;;13.80;99.90;;;;;;4119912;28;20130;-81
2022/07/17 05:38:57;;;;;;;8.38;1.38;;;13.80;99.90;;;;;;4136293;28;20530;-80
2022/07/17 05:40:58;;;;;;;4.78;1.73;;;13.80;99.90;;;;;;4121004;28;20097;-80
2022/07/17 05:42:58;;;;;;;4.57;1.15;;;13.90;99.90;;;;;;4152884;28;20092;-81
2022/07/17 05:44:59;;;;;;;4.68;1.40;;;14.00;99.90;;;;;;4137963;28;20057;-80
2022/07/17 05:47:00;;;;;;;3.20;1.85;;;14.00;99.90;;;;;;4137669;28;20050;-81
2022/07/17 05:49:00;;;;;;;2.85;1.08;;;14.10;99.90;;;;;;4137462;28;20042;-81
2022/07/17 05:51:02;;;;;;;3.88;1.13;;;14.10;99.90;;;;;;4137456;28;20066;-81
2022/07/17 05:53:03;;;;;;;8.75;1.10;;;14.10;99.90;;;;;;4104514;29;20055;-81
2022/07/17 05:55:05;;;;;;;4.80;1.10;;;14.30;99.90;;;;;;4119543;28;20130;-81
2022/07/17 05:57:06;;;;;;;4.45;0.93;;;14.30;99.90;;;;;;4136917;28;20579;-81
2022/07/17 05:59:06;;;;;;;7.80;1.10;;;14.40;99.90;;;;;;4137023;28;20104;-81
2022/07/17 06:01:07;;;;;;;4.35;0.95;;;14.50;99.90;;;;;;4136796;28;20073;-81
2022/07/17 06:03:08;;;;;;;5.53;1.33;;;14.60;99.70;;;;;;4120190;28;20061;-81
2022/07/17 06:05:08;;;;;;;4.93;0.90;;;14.70;99.60;;;;;;4120733;28;20502;-80
2022/07/17 06:07:09;;;;;;;3.63;1.25;;;14.80;99.50;;;;;;4155456;28;20054;-82
2022/07/17 06:09:10;;;;;;;1.55;0.80;;;14.90;99.40;;;;;;4133723;28;20042;-81
2022/07/17 06:11:11;;;;;;;5.72;1.10;;;15.00;99.30;;;;;;4116762;28;20133;-81
2022/07/17 06:13:13;;;;;;;4.65;1.10;;;15.10;99.20;;;;;;4133341;28;20042;-81
2022/07/17 06:15:14;;;;;;;3.88;0.70;;;15.10;99.10;;;;;;4116524;28;20057;-82
2022/07/17 06:17:14;;;;;;;3.88;1.48;;;15.20;99.00;;;;;;4132888;28;20062;-82
2022/07/17 06:19:15;;;;;;;4.88;1.63;;;15.30;98.90;;;;;;4115980;28;20526;-82
2022/07/17 06:21:16;;;;;;;2.95;0.90;;;15.30;98.90;;;;;;4133917;28;20516;-82
2022/07/17 06:23:16;;;;;;;4.93;1.20;;;15.40;98.90;;;;;;4124252;28;20043;-81
2022/07/17 06:25:17;;;;;;;3.08;1.02;;;15.50;98.70;;;;;;4146815;28;20042;-82
2022/07/17 06:27:18;;;;;;;4.05;1.30;;;15.60;98.70;;;;;;4115424;28;20085;-82
2022/07/17 06:29:18;;;;;;;9.57;1.25;;;15.70;98.50;;;;;;4133075;28;20050;-81
2022/07/17 06:31:19;;;;;;;5.43;1.20;;;15.70;98.30;;;;;;4136754;28;20128;-82
2022/07/17 06:33:20;;;;;;;5.03;0.80;;;15.80;98.10;;;;;;4137007;28;20059;-81
2022/07/17 06:35:22;;;;;;;3.03;0.90;;;15.80;98.00;;;;;;4149961;28;20049;-82
2022/07/17 06:37:23;;;;;;;6.03;0.82;;;15.70;97.90;;;;;;4141701;28;20049;-82
2022/07/17 06:39:24;;;;;;;7.22;1.40;;;15.70;98.00;;;;;;4117770;28;20106;-82
2022/07/17 06:41:25;;;;;;;6.85;0.90;;;15.80;98.00;;;;;;4137398;28;20051;-81
2022/07/17 06:43:27;;;;;;;6.78;1.60;;;15.70;97.90;;;;;;4148319;28;20045;-81
2022/07/17 06:45:27;;;;;;;2.60;1.00;;;15.70;97.90;;;;;;4137304;28;20042;-81
2022/07/17 06:47:29;;;;;;;2.90;0.90;;;15.80;97.90;;;;;;4143657;28;20126;-81
2022/07/17 06:49:31;;;;;;;3.90;1.58;;;15.70;97.70;;;;;;4129798;28;20053;-82
2022/07/17 06:51:31;;;;;;;4.30;1.35;;;15.70;97.70;;;;;;4139946;28;20053;-81
2022/07/17 06:53:32;;;;;;;1.92;0.75;;;15.70;97.90;;;;;;4134344;28;20050;-81
2022/07/17 06:55:33;;;;;;;5.30;0.93;;;15.80;97.90;;;;;;4097911;28;20125;-81
2022/07/17 06:57:33;;;;;;;4.22;0.90;;;15.80;97.80;;;;;;4132361;28;20698;-81
2022/07/17 06:59:34;;;;;;;5.65;0.95;;;15.80;97.70;;;;;;4154666;28;20072;-81
2022/07/17 07:01:36;;;;;;;6.65;0.75;;;15.80;97.70;;;;;;4133519;28;20077;-81
2022/07/17 07:03:37;;;;;;;4.82;0.73;;;15.80;97.80;;;;;;4106413;28;20059;-81
2022/07/17 07:05:38;;;;;;;3.20;0.60;;;15.80;98.00;;;;;;4150448;28;20486;-81
2022/07/17 07:07:39;;;;;;;5.25;1.17;;;15.80;97.70;;;;;;4139053;28;20522;-81
2022/07/17 07:09:40;;;;;;;4.10;0.70;;;15.90;97.60;;;;;;4136155;28;20054;-82
2022/07/17 07:11:41;;;;;;;5.15;0.90;;;16.00;97.60;;;;;;4134801;28;20056;-81
2022/07/17 07:13:41;;;;;;;10.13;1.98;;;16.00;97.60;;;;;;4134108;28;20038;-81
2022/07/17 07:15:42;;;;;;;4.50;0.80;;;16.10;97.60;;;;;;4144893;28;20054;-81
2022/07/17 07:17:43;;;;;;;4.63;1.55;;;16.10;97.50;;;;;;4144410;28;20045;-81
2022/07/17 07:19:43;;;;;;;3.55;0.82;;;16.20;97.60;;;;;;4136082;28;20387;-81
2022/07/17 07:21:44;;;;;;;5.38;0.77;;;16.20;97.50;;;;;;4135765;28;20101;-81
2022/07/17 07:23:45;;;;;;;4.22;0.85;;;16.30;97.40;;;;;;4140866;28;20112;-82
2022/07/17 07:25:46;;;;;;;3.08;0.65;;;16.30;97.30;;;;;;4149555;28;20037;-82
2022/07/17 07:27:47;;;;;;;4.10;0.82;;;16.40;97.30;;;;;;4146025;28;20073;-82
2022/07/17 07:29:47;;;;;;;12.93;1.10;;;16.40;97.10;;;;;;4141859;28;20518;-82
2022/07/17 07:31:48;;;;;;;4.85;0.63;;;16.50;97.20;;;;;;4117437;28;20058;-81
2022/07/17 07:33:49;;;;;;;6.10;1.67;;;16.60;97.20;;;;;;4139511;28;20053;-81
2022/07/17 07:35:49;;;;;;;5.75;1.15;;;16.60;97.10;;;;;;4138312;28;20090;-81
2022/07/17 07:37:50;;;;;;;5.50;1.80;;;16.70;97.00;;;;;;4138649;28;20064;-82
2022/07/17 07:39:51;;;;;;;3.65;0.80;;;16.80;96.90;;;;;;4130233;28;20066;-82
2022/07/17 07:41:53;;;;;;;8.82;1.20;;;16.80;96.70;;;;;;4120836;28;20051;-82
2022/07/17 07:43:53;;;;;;;3.53;0.85;;;16.90;96.70;;;;;;4121137;28;20051;-81
2022/07/17 07:45:55;;;;;;;5.45;1.10;;;16.90;96.50;;;;;;4129294;28;20076;-82
2022/07/17 07:47:56;;;;;;;7.20;1.10;;;16.90;96.60;;;;;;4139965;28;20056;-82
2022/07/17 07:49:56;;;;;;;4.78;1.00;;;17.00;96.60;;;;;;4144266;28;20129;-82
2022/07/17 07:51:57;;;;;;;7.88;0.90;;;17.00;96.30;;;;;;4146208;28;20076;-81
2022/07/17 07:53:58;;;;;;;2.30;0.68;;;17.10;96.10;;;;;;4132868;28;20073;-81
2022/07/17 07:55:58;;;;;;;7.45;0.80;;;17.10;95.90;;;;;;4144337;28;20052;-82
2022/07/17 07:58:10;;;;;;;3.08;0.70;;;17.10;95.90;;;;;;4103743;28;20130;-82
2022/07/17 08:00:12;;;;;;;1.52;0.70;;;17.10;95.90;;;;;;4134137;28;20057;-83
2022/07/17 08:02:12;;;;;;;2.55;0.98;;;17.20;95.80;;;;;;4147622;28;20395;-84
2022/07/17 08:04:13;;;;;;;5.95;1.00;;;17.30;95.50;;;;;;4117685;28;20069;-83
2022/07/17 08:06:14;;;;;;;2.13;0.73;;;17.40;95.40;;;;;;4100890;29;20051;-83
2022/07/17 08:08:15;;;;;;;4.22;0.77;;;17.50;95.20;;;;;;4119779;28;20126;-83
2022/07/17 08:10:15;;;;;;;5.07;0.95;;;17.60;94.90;;;;;;4135728;28;20105;-83
2022/07/17 08:12:16;;;;;;;8.00;0.82;;;17.80;94.80;;;;;;4136383;28;20117;-83
2022/07/17 08:14:17;;;;;;;4.85;1.00;;;17.80;94.40;;;;;;4137091;28;20104;-83
2022/07/17 08:16:17;;;;;;;1.83;0.50;;;17.90;94.30;;;;;;4148647;28;20054;-83
2022/07/17 08:18:18;;;;;;;2.33;0.77;;;18.00;94.20;;;;;;4100870;29;20126;-83
2022/07/17 08:20:20;;;;;;;4.72;0.65;;;;;;;;;;4116765;28;20259;-84
2022/07/17 08:22:21;;;;;;;4.22;0.77;;;;;;;;;;4147271;28;20081;-83
2022/07/17 08:24:24;;;;;;;5.25;0.73;;;;;;;;;;4117052;28;20047;-83
2022/07/17 08:26:25;;;;;;;4.28;0.57;;;;;;;;;;4116820;28;20046;-82
2022/07/17 08:28:26;;;;;;;5.15;0.85;;;;;;;;;;4116172;28;20063;-81
2022/07/17 08:30:27;;;;;;;6.30;1.05;;;;;;;;;;4134112;28;20052;-81
2022/07/17 08:32:28;;;;;;;5.25;0.95;;;;;;;;;;4120808;28;20047;-82
2022/07/17 08:34:29;;;;;;;4.22;0.52;;;;;;;;;;4123295;28;20051;-82
2022/07/17 08:36:30;;;;;;;2.17;0.60;;;;;;;;;;4120337;28;20070;-81
2022/07/17 08:38:31;;;;;;;3.83;0.75;;;;;;;;;;4120937;28;20094;-82
2022/07/17 08:40:35;;;;;;;3.80;0.85;;;;;;;;;;4138233;28;20105;-81
2022/07/17 08:42:42;;;;;;;3.85;0.85;;;;;;;;;;4121152;28;20038;-82
2022/07/17 08:44:44;;;;;;;5.20;0.68;;;;;;;;;;4120753;28;20047;-83
2022/07/17 08:46:45;;;;;;;4.03;0.80;;;;;;;;;;4102462;29;20481;-81
2022/07/17 08:48:47;;;;;;;4.05;0.82;;;;;;;;;;4131983;28;20058;-82
2022/07/17 08:50:49;;;;;;;4.75;1.27;;;;;;;;;;4116118;28;20834;-81
2022/07/17 08:52:50;;;;;;;6.28;1.15;;;;;;;;;;4117574;28;20047;-80
2022/07/17 08:54:52;;;;;;;1.88;0.73;;;;;;;;;;4101024;29;20047;-81
2022/07/17 08:56:53;;;;;;;6.07;1.00;;;;;;;;;;4116781;28;20050;-84
2022/07/17 08:58:55;;;;;;;3.88;0.90;;;;;;;;;;4118436;28;20078;-81
2022/07/17 09:00:56;;;;;;;3.60;0.60;;;;;;;;;;4140023;28;20061;-81
2022/07/17 09:03:09;;;;;;;3.20;0.60;;;;;;;;;;4150193;28;20046;-81
2022/07/17 09:05:11;;;;;;;7.88;0.80;;;;;;;;;;4148017;28;20050;-82
2022/07/17 09:07:12;;;;;;;3.60;0.70;;;;;;;;;;4120319;28;20093;-81
2022/07/17 09:09:14;;;;;;;3.38;0.77;;;;;;;;;;4155710;28;20446;-81
2022/07/17 09:11:15;;;;;;;4.03;0.82;;;;;;;;;;4130745;28;20047;-81
2022/07/17 09:13:26;;;;;;;3.47;0.80;;;;;;;;;;4124758;28;20070;-81
2022/07/17 09:15:34;;;;;;;2.47;0.77;;;;;;;;;;4156221;28;20053;-81
2022/07/17 09:17:36;;;;;;;1.13;0.63;;;;;;;;;;4112039;28;20068;-81
2022/07/17 09:19:40;;;;;;;3.38;0.73;;;;;;;;;;4142977;28;20097;-81
2022/07/17 09:21:41;;;;;;;2.95;0.80;;;;;;;;;;4151730;28;20057;-81
2022/07/17 09:23:42;;;;;;;2.08;0.70;;;;;;;;;;4135371;28;20101;-81
2022/07/17 09:25:45;;;;;;;2.72;0.52;;;18.20;94.00;;;;;;4148005;28;20523;-82
2022/07/17 09:27:46;;;;;;;3.88;0.80;;;21.20;87.20;;;;;;4149290;28;20038;-80
2022/07/17 09:29:53;;;;;;;6.68;0.88;;;;;;;;;;4123155;28;20121;-82
2022/07/17 09:31:54;;;;;;;3.72;0.63;;;;;;;;;;4132972;28;20399;-82
2022/07/17 09:33:55;;;;;;;1.05;0.50;;;;;;;;;;4115918;28;20058;-81
2022/07/17 09:35:58;;;;;;;2.50;0.60;;;;;;;;;;4151419;28;20410;-82
2022/07/17 09:37:58;;;;;;;2.33;0.73;;;21.40;87.20;;;;;;4118290;28;20118;-81
2022/07/17 09:40:00;;;;;;;4.40;1.00;;;22.80;83.50;;;;;;4117526;28;20384;-81
2022/07/17 09:42:01;;;;;;;5.63;0.60;;;23.10;81.60;;;;;;4137808;28;20046;-81
2022/07/17 09:44:03;;;;;;;2.97;0.70;;;23.20;79.70;;;;;;4157604;28;20078;-81
2022/07/17 09:46:04;;;;;;;1.90;0.60;;;23.20;79.20;;;;;;4139590;28;20042;-81
2022/07/17 09:48:05;;;;;;;3.63;1.17;;;23.30;78.10;;;;;;4119190;28;20106;-81
2022/07/17 09:50:09;;;;;;;3.42;1.08;;;23.30;77.40;;;;;;4138373;28;20073;-81
2022/07/17 09:52:11;;;;;;;1.08;0.65;;;23.50;76.40;;;;;;4149026;28;20094;-81
2022/07/17 09:54:13;;;;;;;2.72;1.10;;;23.70;74.90;;;;;;4129552;28;20049;-81
2022/07/17 09:56:17;;;;;;;4.63;0.95;;;24.00;74.40;;;;;;4131822;28;20090;-81
2022/07/17 09:58:22;;;;;;;4.32;0.55;;;24.10;74.40;;;;;;4138556;28;20042;-81
2022/07/17 10:00:22;;;;;;;1.27;0.57;;;24.20;72.40;;;;;;4138245;28;20057;-81
2022/07/17 10:02:24;;;;;;;1.17;0.60;;;24.20;71.70;;;;;;4138986;28;20046;-81
2022/07/17 10:04:26;;;;;;;3.80;0.80;;;24.10;72.10;;;;;;4149693;28;20077;-81
2022/07/17 10:06:27;;;;;;;2.22;0.70;;;24.30;72.50;;;;;;4147401;28;20077;-81
2022/07/17 10:08:31;;;;;;;1.50;0.60;;;24.60;73.20;;;;;;4138103;28;20054;-81
2022/07/17 10:10:31;;;;;;;0.70;0.60;;;24.60;73.20;;;;;;4151107;28;20084;-81
2022/07/17 10:12:32;;;;;;;2.85;0.60;;;24.60;72.80;;;;;;4108077;28;20082;-81
2022/07/17 10:14:35;;;;;;;2.03;0.73;;;24.60;71.60;;;;;;4143743;28;20100;-81
2022/07/17 10:16:38;;;;;;;3.55;1.13;;;24.60;71.30;;;;;;4148338;28;20120;-82
2022/07/17 10:18:44;;;;;;;4.75;0.70;;;24.70;71.80;;;;;;4133858;28;20054;-81
2022/07/17 10:20:46;;;;;;;3.95;0.80;;;24.90;71.20;;;;;;4135927;28;20046;-81
2022/07/17 10:22:47;;;;;;;1.45;0.80;;;25.10;72.00;;;;;;4137706;28;20569;-82
2022/07/17 10:24:56;;;;;;;1.17;0.70;;;25.20;72.30;;;;;;4136025;28;20046;-81
2022/07/17 10:26:58;;;;;;;1.75;0.70;;;25.20;70.00;;;;;;4114027;28;20057;-83
2022/07/17 10:28:59;;;;;;;3.75;0.63;;;25.20;69.80;;;;;;4114950;28;20047;-82
2022/07/17 10:30:59;;;;;;;3.75;0.80;;;25.50;69.80;;;;;;4115393;28;20116;-81
2022/07/17 10:33:05;;;;;;;2.05;0.50;;;25.60;68.00;;;;;;4132326;28;20043;-82
2022/07/17 10:35:08;;;;;;;5.05;0.65;;;25.60;66.40;;;;;;4114894;28;20504;-82
2022/07/17 10:37:26;;;;;;;1.70;0.60;;;25.80;67.00;;;;;;4132034;28;20082;-81
2022/07/17 10:39:27;;;;;;;1.85;0.60;;;26.20;65.50;;;;;;4131592;28;20050;-81
2022/07/17 10:41:28;;;;;;;3.55;1.45;;;26.50;64.70;;;;;;4131140;28;20134;-81